This demonstration page uses our WeatherBlox Daily Observations layout. Learn more.

36.17497, -115.13722

Hourly Observations for September 27, 2018

Temp ( °F °C ) Dew Point ( °F °C ) Humidity (%) Winds ( mph kmh ) Pressure ( in mb ) Visibility ( mi km ) Precip ( " mm )
12:53 am 00:53 Clear 76 24.4 27 -2.8 16 16 WNW 8 13 29.94 1014 10 16.09344 0 0
1:53 am 01:53 Clear 75 23.9 19 -7.2 12 12 NW 9 15 29.94 1014 10 16.09344 0 0
2:53 am 02:53 Clear 72 22.2 22 -5.6 15 15 Calm 29.94 1014 10 16.09344 0 0
3:53 am 03:53 Clear 70 21.1 23 -5 17 17 Calm 29.94 1014 10 16.09344 0 0
4:53 am 04:53 Clear 69 20.6 26 -3.3 20 20 WNW 3 6 29.94 1014 10 16.09344 0 0
5:53 am 05:53 Clear 68 20 28 -2.2 22 22 WNW 6 9 29.97 1015 10 16.09344 0 0
6:53 am 06:53 Sunny 68 20 28 -2.2 22 22 WNW 3 6 29.97 1015 10 16.09344 0 0
7:53 am 07:53 Sunny 72 22.2 25 -3.9 17 17 Calm 30 1016 10 16.09344 0 0
8:53 am 08:53 Sunny 76 24.4 24 -4.4 14 14 Calm 30 1016 10 16.09344 0 0
9:53 am 09:53 Sunny 81 27.2 22 -5.6 11 11 Calm 30 1016 10 16.09344 0 0
10:53 am 10:53 Sunny 85 29.4 23 -5 10 10 N 3 6 29.97 1015 10 16.09344 0 0
11:53 am 11:53 Sunny 88 31.1 18 -7.8 7 7 SSE 3 6 29.97 1015 10 16.09344 0 0
12:53 pm 12:53 Sunny 90 32.2 17 -8.3 7 7 SSE 5 7 29.94 1014 10 16.09344 0 0
1:53 pm 13:53 Sunny 92 33.3 16 -8.9 6 6 S 6 9 29.88 1012 10 16.09344 0 0
2:53 pm 14:53 Sunny 95 35 15 -9.4 5 5 SSE 5 7 29.85 1011 10 16.09344 0 0
3:53 pm 15:53 Sunny 97 36.1 15 -9.4 5 5 Calm 29.83 1010 10 16.09344 0 0
4:53 pm 16:53 Sunny 96 35.6 15 -9.4 5 5 S 5 7 29.83 1010 10 16.09344 0 0
5:53 pm 17:53 Sunny 96 35.6 16 -8.9 5 5 SSW 6 9 29.8 1009 10 16.09344 0 0
6:53 pm 18:53 Clear 94 34.4 19 -7.2 6 6 SSW 6 9 29.8 1009 10 16.09344 0 0
7:53 pm 19:53 Clear 89 31.7 22 -5.6 8 8 Calm 29.83 1010 10 16.09344 0 0
8:53 pm 20:53 Clear 85 29.4 25 -3.9 11 11 SSW 5 7 29.83 1010 10 16.09344 0 0
9:53 pm 21:53 Clear 81 27.2 25 -3.9 13 13 N 6 9 29.83 1010 10 16.09344 0 0
10:53 pm 22:53 Clear 77 25 24 -4.4 14 14 NNW 5 7 29.83 1010 10 16.09344 0 0
11:53 pm 23:53 Clear 76 24.4 26 -3.3 16 16 Calm 29.83 1010 10 16.09344 0 0

Powered by AerisWeather